»·PEaware :: N463PA KSNA-KEMT

N463PA :: KSNA-KEMT

FLIGHT INFORMATION

Flight Status: Arrived
Operator: Privately registered:
United States
More flights under this callsign
Pilot: Anonymous 16342 (16342)
Aircraft: PIPER PA-44 SEMINOLE
(PA44)
More flights by this aircraft type
Origin: KSNA John Wayne-Orange Co
United States
Destination: KEMT El Monte
United States
More flights between these airports :: More routes between these airports
Route: +SLI V8 POXKU V363 POM
File this flight plan on PilotEdge
Remarks: I-4 attempt
Altitude:
(Current/Filed)
5,000ft
Speed:
(Current/Filed)
150kts
Departed: 26-Jun-18 08:58 AM
Arrived: 26-Jun-18 09:24 AM
Distance/Time
Traveled:
26nm/0:26
Distance/Time
To Go:
Arrived

Flight Plot

Page will automatically refresh every two minutes.


Map Options




Map Legend


Flown Route
Filed Route
Departure Airport
Arrival Airport
Navaid (VOR, NDB)
Fix

Horizontal Profiles

Position Reports

Time Latitude Longitude Heading Altitude Ground
Speed
26-Jun-18 08:28 33.667483 -117.870799 42 59ft 0kts
26-Jun-18 08:29 33.667483 -117.870798 42 59ft 0kts
26-Jun-18 08:30 33.667484 -117.870797 42 59ft 0kts
26-Jun-18 08:31 33.667485 -117.870797 42 59ft 0kts
26-Jun-18 08:32 33.667485 -117.870796 42 59ft 0kts
26-Jun-18 08:33 33.667486 -117.870795 42 59ft 0kts
26-Jun-18 08:34 33.667487 -117.870794 42 59ft 0kts
26-Jun-18 08:35 33.667487 -117.870794 42 59ft 0kts
26-Jun-18 08:36 33.667488 -117.870793 42 59ft 0kts
26-Jun-18 08:37 33.667526 -117.870750 42 59ft 0kts
26-Jun-18 08:38 33.667526 -117.870750 42 59ft 0kts
26-Jun-18 08:39 33.667526 -117.870750 42 59ft 0kts
26-Jun-18 08:40 33.667545 -117.870734 32 59ft 2kts
26-Jun-18 08:41 33.668847 -117.871142 42 59ft 10kts
26-Jun-18 08:42 33.671453 -117.868465 32 59ft 8kts
26-Jun-18 08:43 33.673546 -117.867008 305 59ft 7kts
26-Jun-18 08:44 33.676887 -117.865263 29 59ft 15kts
26-Jun-18 08:45 33.679741 -117.863881 289 59ft 0kts
26-Jun-18 08:46 33.679741 -117.863883 289 59ft 0kts
26-Jun-18 08:49 33.679743 -117.863889 289 59ft 0kts
26-Jun-18 08:49 33.679743 -117.863890 289 59ft 0kts
26-Jun-18 08:50 33.679744 -117.863893 289 59ft 0kts
26-Jun-18 08:51 33.679745 -117.863895 289 59ft 0kts
26-Jun-18 08:53 33.679746 -117.863899 0 59ft 0kts
26-Jun-18 08:55 33.679748 -117.863905 289 59ft 0kts
26-Jun-18 08:56 33.679748 -117.863907 289 59ft 0kts
26-Jun-18 08:57 33.679796 -117.864071 285 59ft 9kts
26-Jun-18 08:58 33.663959 -117.877096 230 682ft 107kts
26-Jun-18 08:59 33.643286 -117.909438 232 1527ft 126kts
26-Jun-18 09:00 33.621265 -117.944056 232 2019ft 141kts
26-Jun-18 09:01 33.597353 -117.981691 232 2452ft 137kts
26-Jun-18 09:02 33.605836 -118.014600 338 3477ft 131kts
26-Jun-18 09:03 33.639479 -118.024045 349 4433ft 126kts
26-Jun-18 09:04 33.674395 -118.031509 349 5025ft 140kts
26-Jun-18 09:05 33.716670 -118.040537 349 5002ft 162kts
26-Jun-18 09:06 33.760408 -118.049877 349 4997ft 157kts
26-Jun-18 09:07 33.791222 -118.025681 77 5009ft 154kts
26-Jun-18 09:08 33.803375 -117.976970 72 4987ft 155kts
26-Jun-18 09:09 33.816313 -117.927352 72 4986ft 154kts
26-Jun-18 09:10 33.829025 -117.878178 72 4986ft 154kts
26-Jun-18 09:11 33.841792 -117.828733 72 4984ft 154kts
26-Jun-18 09:12 33.860051 -117.784186 25 4987ft 153kts
26-Jun-18 09:13 33.902446 -117.783687 359 4989ft 154kts
26-Jun-18 09:14 33.945128 -117.784293 358 4998ft 153kts
26-Jun-18 09:15 33.988058 -117.785185 358 5002ft 154kts
26-Jun-18 09:16 34.030731 -117.786078 358 5011ft 153kts
26-Jun-18 09:17 34.072518 -117.792115 320 5016ft 152kts
26-Jun-18 09:18 34.080858 -117.842851 272 4988ft 165kts
26-Jun-18 09:19 34.083795 -117.893327 271 4376ft 141kts
26-Jun-18 09:20 34.085141 -117.936557 271 3713ft 135kts
26-Jun-18 09:21 34.086732 -117.982088 271 2699ft 134kts
26-Jun-18 09:22 34.097179 -118.009321 48 1066ft 122kts
26-Jun-18 09:23 34.102093 -118.023898 229 687ft 106kts
26-Jun-18 09:24 34.083838 -118.036118 209 299ft 31kts
26-Jun-18 09:25 34.083038 -118.036088 119 299ft 0kts
26-Jun-18 09:26 34.083030 -118.036069 117 299ft 1kts
26-Jun-18 09:27 34.084281 -118.035102 44 299ft 1kts
26-Jun-18 09:28 34.084365 -118.034260 21 299ft 0kts

Navigation Log

Ident Type
Flight plan parsing failed, navigation log unavailable